Alden, NY

12:56 PM EDT on September 02, 2015 (GMT -0400)
West Alden | | Change Station
CLOSE
Current Station
Personal Weather Station
Location: Alden, NY
Elevation: 840 ft
Nearby Weather Stations

Elev 840 ft 42.89 °N, 78.53 °W | Updated 1 minute ago

Partly Cloudy
Partly Cloudy
83.3 °F
Feels Like 82 °F
N
0.0
Wind Variable Wind from SSE
Gusts 0.0 mph

Today
High -- | Low -- °F
--% Chance of Precip.
Yesterday
High -- | Low -- °F
Precip. -- in
6:39 AM 7:47 PM
Waning Gibbous, 79% visible
Pressure 30.04 in
Visibility 8.0 miles
Clouds Few 2800 ft
Few 5500 ft
Few 28000 ft
Heat Index 82 °F
Dew Point 53 °F
Humidity 36%
Rainfall 0.00 in
Snow Depth Not available.
UV 7 out of 12
Pollen 10.90 out of 12
Air Quality Not available.
Flu Activity Not available.
METAR KBUF 021554Z 24011KT 8SM FEW028 FEW055 FEW280 27/20 A3004 RMK AO2 SLP170 T02670200
Pressure 30.04 in
Visibility 8.0 miles
Clouds Few 2800 ft
Few 5500 ft
Few 28000 ft
Heat Index 82 °F
Dew Point 53 °F
Humidity 36%
Rainfall 0.00 in
Snow Depth Not available.
UV 7 out of 12
Pollen 10.90 out of 12
Air Quality Not available.
Flu Activity Not available.
METAR KBUF 021554Z 24011KT 8SM FEW028 FEW055 FEW280 27/20 A3004 RMK AO2 SLP170 T02670200

10-Day Weather Forecast

×

Almanac

Astronomy

Sep. 02, 2015 Rise Set
Actual Time
Civil Twilight
Nautical Twilight
Astronomical Twilight
Moon
Length of Visible Light
Length of Day
Tomorrow will be .
, % of the Moon is Illuminated

Today's Extremes

State Highs State Lows

Community

WunderPhotos

Upload Photos

1,851,783 photos uploaded!

WunderBlogs® & News

Nearby

Air Quality

  Air Quality AQ Index Pollutant
Not available.

Snow Depth

Station Depth Elevation

Earthquake Activity

City Distance Mag. Time & Date
Minimum magnitude displayed is 2.5.

Coastal Water Temperatures

Place Temperature

Stations

Nearby Weather Stations

Station Location Temp. Windchill Dew Point Humidity Wind Precip. Elev Updated Type